createdAt,value
2018-06-23T05:08:35.689Z,1128
2018-06-23T05:18:10.274Z,1936
2018-06-23T05:18:31.885Z,1712
2018-06-23T05:18:52.371Z,1552
2018-06-23T05:19:12.875Z,1716
2018-06-23T05:19:33.383Z,2048
2018-06-23T05:19:53.659Z,1784
2018-06-23T05:20:14.075Z,1948
2018-06-23T05:20:35.209Z,1784
2018-06-23T05:20:55.571Z,1724
2018-06-23T05:21:15.843Z,2076
2018-06-23T05:21:36.337Z,2084
2018-06-23T05:21:56.612Z,1712
2018-06-23T05:22:16.614Z,1728
2018-06-23T05:22:37.089Z,1792
2018-06-23T05:22:57.528Z,1484
2018-06-23T05:53:32.222Z,1344
2018-06-23T05:53:52.605Z,1380
2018-06-23T05:54:35.096Z,1348
2018-06-23T05:54:55.387Z,1388
2018-06-23T05:56:26.670Z,1288
2018-06-23T05:57:31.206Z,1560
2018-06-23T05:57:51.579Z,1572
2018-06-23T05:58:12.009Z,1672
2018-06-23T05:58:32.341Z,1888
2018-06-23T05:58:52.578Z,2016
2018-06-23T05:59:46.789Z,1948
2018-06-23T06:00:07.663Z,1848
2018-06-23T06:00:27.992Z,1716
2018-06-23T06:00:48.352Z,1400
2018-06-23T06:01:08.749Z,1336
2018-06-23T06:01:29.052Z,1436
2018-06-23T06:01:49.573Z,1304
2018-06-23T06:02:09.870Z,1368
2018-06-23T06:02:30.149Z,1340
2018-06-23T06:02:50.365Z,1200
2018-06-23T06:12:22.270Z,1304
2018-06-23T06:12:42.932Z,1348
2018-06-23T06:13:03.299Z,1476
2018-06-23T06:13:23.563Z,1632
2018-06-23T06:13:43.993Z,1684
2018-06-23T06:14:05.464Z,1636
2018-06-23T06:14:25.870Z,1740
2018-06-23T06:14:46.286Z,1872
2018-06-23T06:15:07.643Z,1756
2018-06-23T06:15:28.744Z,1744
2018-06-23T06:15:49.111Z,1876
2018-06-23T06:16:10.538Z,1784
2018-06-23T06:16:31.603Z,1724
2018-06-23T06:16:52.119Z,1708
2018-06-23T06:17:12.528Z,1632
2018-06-23T06:17:33.150Z,1612
2018-06-23T06:17:53.572Z,1576
2018-06-23T06:18:14.110Z,1284
2018-06-23T06:18:34.520Z,1080
2018-06-23T06:24:06.675Z,1236
2018-06-23T06:24:26.887Z,1128
2018-06-23T06:24:47.302Z,1088
2018-06-23T06:25:07.860Z,1052
2018-06-23T06:25:28.338Z,1072
2018-06-23T06:25:48.681Z,1096
2018-06-23T06:26:09.763Z,1144
2018-06-23T06:26:30.212Z,1112
2018-06-23T06:26:50.692Z,1228
2018-06-23T06:27:11.026Z,1416
2018-06-23T06:27:31.352Z,1552
2018-06-23T06:27:51.674Z,1604
2018-06-23T06:28:12.069Z,1872
2018-06-23T06:28:32.350Z,2112
2018-06-23T06:28:52.726Z,2088
2018-06-23T06:29:13.315Z,2592
2018-06-23T06:29:33.817Z,2960
2018-06-23T06:29:54.201Z,2236
2018-06-23T06:30:14.596Z,2220
2018-06-23T06:30:35.082Z,2084
2018-06-23T06:30:55.592Z,1828
2018-06-23T06:31:16.147Z,1740
2018-06-23T06:31:36.671Z,2284
2018-06-23T06:31:57.122Z,2296
2018-06-23T06:32:17.374Z,1676
2018-06-23T06:32:37.942Z,1360
2018-06-23T06:32:58.915Z,1284
2018-06-23T06:33:19.664Z,1268
2018-06-23T06:33:40.724Z,1112
2018-06-23T06:34:01.201Z,1156
2018-06-23T06:34:21.570Z,1408
2018-06-23T06:34:42.101Z,1392
2018-06-23T06:35:03.390Z,1096
2018-06-23T06:35:24.790Z,924
2018-06-23T06:35:45.181Z,1052
2018-06-23T06:36:05.526Z,1228
2018-06-23T06:36:44.588Z,1488
2018-06-23T06:37:05.263Z,1276
2018-06-23T06:37:25.953Z,1084
2018-06-23T06:37:46.622Z,1204
2018-06-23T06:43:42.869Z,1464
2018-06-23T06:44:03.292Z,1496
2018-06-23T06:44:23.693Z,1612
2018-06-23T06:44:44.235Z,1704
2018-06-23T06:45:04.555Z,1728
2018-06-23T06:45:24.876Z,1876
2018-06-23T06:45:45.193Z,1892
2018-06-23T06:46:05.765Z,1792
2018-06-23T06:46:26.145Z,1520
2018-06-23T06:46:46.468Z,1380
2018-06-23T06:47:06.987Z,1328
2018-06-23T06:47:27.404Z,1352
2018-06-23T06:48:12.134Z,1224
2018-06-23T06:48:32.653Z,1272
2018-06-23T06:48:52.980Z,1300
2018-06-23T06:49:14.390Z,1340
2018-06-23T06:49:35.017Z,1260
2018-06-23T06:49:55.355Z,1172
2018-06-23T06:50:15.512Z,1064
2018-06-23T06:50:36.056Z,1036
2018-06-23T06:50:56.352Z,1056
2018-06-23T06:51:16.715Z,1060
2018-06-23T06:51:37.175Z,1064
2018-06-23T06:51:57.527Z,1060
2018-06-23T06:52:17.773Z,1064
2018-06-23T06:52:38.048Z,1056
2018-06-23T06:52:58.407Z,1024
2018-06-23T06:53:18.800Z,996
2018-06-23T06:53:39.139Z,992
2018-06-23T06:53:59.404Z,1000
2018-06-23T06:54:19.827Z,1020
2018-06-23T06:54:40.772Z,1040
2018-06-23T06:55:01.113Z,1032
2018-06-23T06:55:21.377Z,1060
2018-06-23T06:55:41.621Z,1176
2018-06-23T06:56:01.856Z,1236
2018-06-23T06:56:22.243Z,1340
2018-06-23T06:56:42.524Z,1248
2018-06-23T06:57:02.917Z,1180
2018-06-23T06:57:23.127Z,1524
2018-06-23T06:57:43.479Z,2176
2018-06-23T06:58:03.800Z,2176
2018-06-23T06:58:24.085Z,1744
2018-06-23T06:58:44.565Z,1620
2018-06-23T06:59:04.990Z,2204
2018-06-23T06:59:25.187Z,2356
2018-06-23T06:59:45.374Z,2228
2018-06-23T07:00:05.646Z,2208
2018-06-23T07:00:25.861Z,1864
2018-06-23T07:00:46.140Z,1604
2018-06-23T07:01:06.478Z,1468
2018-06-23T07:01:26.705Z,1284
2018-06-23T07:01:46.959Z,1288
2018-06-23T07:02:07.238Z,1316
2018-06-23T07:02:27.466Z,1516
2018-06-23T07:02:47.676Z,2112
2018-06-23T07:03:07.960Z,2312
2018-06-23T07:03:28.511Z,1928
2018-06-23T07:03:48.846Z,1852
2018-06-23T07:04:09.098Z,1652
2018-06-23T07:04:29.523Z,1392
2018-06-23T07:04:49.742Z,1412
2018-06-23T07:05:09.934Z,1596
2018-06-23T07:05:30.667Z,1924
2018-06-23T07:05:51.052Z,2000
2018-06-23T07:06:11.355Z,1576
2018-06-23T07:06:31.640Z,1288
2018-06-23T07:06:51.905Z,1520
2018-06-23T07:07:12.240Z,1672
2018-06-23T07:07:32.590Z,1632
2018-06-23T07:07:52.912Z,1728
2018-06-23T07:08:13.397Z,1820
2018-06-23T07:08:33.722Z,1908
2018-06-23T07:08:54.340Z,1808
2018-06-23T07:09:15.699Z,1728
2018-06-23T07:09:36.171Z,1656
2018-06-23T07:09:56.680Z,1464
2018-06-23T07:10:17.487Z,1608
2018-06-23T07:10:37.960Z,1540
2018-06-23T07:10:58.502Z,1672
2018-06-23T07:11:19.169Z,1544
2018-06-23T07:11:39.559Z,1676
2018-06-23T07:11:59.893Z,1680
2018-06-23T07:12:20.573Z,1660
2018-06-23T07:12:41.118Z,1560
2018-06-23T07:13:02.417Z,1596
2018-06-23T07:13:22.866Z,1696
2018-06-23T07:13:43.277Z,1724
2018-06-23T07:14:03.656Z,1732
2018-06-23T07:14:24.261Z,1744
2018-06-23T07:14:45.005Z,1688
2018-06-23T07:15:05.917Z,1732
2018-06-23T07:15:26.624Z,1624
2018-06-23T07:15:47.072Z,1620
2018-06-23T07:16:07.416Z,1812
2018-06-23T07:16:27.756Z,1760
2018-06-23T07:16:48.245Z,1920
2018-06-23T07:17:09.809Z,1880
2018-06-23T07:17:30.396Z,1860
2018-06-23T07:17:50.814Z,1844
2018-06-23T07:18:11.177Z,1704
2018-06-23T07:18:32.373Z,1688
2018-06-23T07:18:53.060Z,1668
2018-06-23T07:19:13.360Z,1684
2018-06-23T07:19:33.797Z,1716
2018-06-23T07:19:54.367Z,1740
2018-06-23T07:20:14.842Z,1864
2018-06-23T07:20:35.336Z,1956
2018-06-23T07:20:55.850Z,2072
2018-06-23T07:21:16.170Z,2112
2018-06-23T07:21:36.497Z,2164
2018-06-23T07:21:58.064Z,2276
2018-06-23T07:22:18.546Z,2228
2018-06-23T07:22:39.002Z,2280
2018-06-23T07:22:59.325Z,2220
2018-06-23T07:23:20.011Z,2180
2018-06-23T07:23:41.607Z,2232
2018-06-23T07:24:02.152Z,2224
2018-06-23T07:24:22.682Z,2200
2018-06-23T07:24:45.568Z,2204
2018-06-23T07:25:05.895Z,2260
2018-06-23T07:25:26.482Z,2196
2018-06-23T07:25:46.963Z,2124
2018-06-23T07:26:07.466Z,2032
2018-06-23T07:26:27.949Z,1944
2018-06-23T07:26:48.367Z,1828
2018-06-23T07:27:09.131Z,1804
2018-06-23T07:27:30.029Z,1944
2018-06-23T07:27:50.536Z,2084
2018-06-23T07:28:10.869Z,2000
2018-06-23T07:28:32.005Z,1928
2018-06-23T07:28:52.449Z,1928
2018-06-23T07:29:12.836Z,1976
2018-06-23T07:29:33.204Z,2060
2018-06-23T07:29:53.725Z,2056
2018-06-23T07:30:14.099Z,1828
2018-06-23T07:30:34.452Z,1596
2018-06-23T07:30:55.004Z,1652
2018-06-23T07:31:15.391Z,1644
2018-06-23T07:31:35.857Z,1824
2018-06-23T07:31:56.828Z,1924
2018-06-23T07:32:17.206Z,1832
2018-06-23T07:32:37.817Z,1648
2018-06-23T07:32:58.126Z,1668
2018-06-23T07:33:18.633Z,1652
2018-06-23T07:33:39.058Z,1620
2018-06-23T07:33:59.517Z,1744
2018-06-23T07:34:19.998Z,1772
2018-06-23T07:34:40.494Z,1772
2018-06-23T07:35:00.918Z,1656
2018-06-23T07:35:21.637Z,1592
2018-06-23T07:35:41.978Z,1620
2018-06-23T07:36:02.506Z,1832
2018-06-23T07:36:22.806Z,2116
2018-06-23T07:36:43.135Z,2448
2018-06-23T07:37:03.434Z,2620
2018-06-23T07:37:23.716Z,2708
2018-06-23T07:37:44.049Z,2960
2018-06-23T07:38:04.470Z,3072
2018-06-23T07:38:24.692Z,3068
2018-06-23T07:38:45.100Z,2864
2018-06-23T07:39:05.621Z,2852
2018-06-23T07:39:26.108Z,2784
2018-06-23T07:39:47.914Z,2632
2018-06-23T07:40:08.405Z,2504
2018-06-23T07:40:28.777Z,2492
2018-06-23T07:40:49.255Z,2412
2018-06-23T07:41:09.574Z,2428
2018-06-23T07:41:30.917Z,2532
2018-06-23T07:41:51.251Z,2624
2018-06-23T07:42:11.707Z,2664
2018-06-23T07:42:32.040Z,2932
2018-06-23T07:42:52.325Z,2924
2018-06-23T07:43:12.682Z,2712
2018-06-23T07:43:33.873Z,2272
2018-06-23T07:43:54.211Z,2060
2018-06-23T07:44:14.628Z,1956
2018-06-23T07:44:35.111Z,1912
2018-06-23T07:44:55.543Z,1900
2018-06-23T07:45:15.956Z,1980
2018-06-23T07:45:36.611Z,1956
2018-06-23T07:45:57.106Z,1924
2018-06-23T07:46:17.515Z,1828
2018-06-23T07:46:37.991Z,1780
2018-06-23T07:46:58.367Z,1852
2018-06-23T07:47:18.982Z,1976
2018-06-23T07:47:39.402Z,2120
2018-06-23T07:47:59.847Z,2224
2018-06-23T07:48:20.304Z,2188
2018-06-23T07:48:40.746Z,2144
2018-06-23T07:49:01.203Z,2200
2018-06-23T07:49:23.452Z,2196
2018-06-23T07:49:43.906Z,2000
2018-06-23T07:50:04.279Z,1844
2018-06-23T07:50:24.703Z,1768
2018-06-23T07:50:45.091Z,1816
2018-06-23T07:51:05.465Z,1968
2018-06-23T07:51:25.979Z,2160
2018-06-23T07:51:46.379Z,2236
2018-06-23T07:52:06.699Z,2120
2018-06-23T07:52:27.103Z,2108
2018-06-23T07:52:47.610Z,2164
2018-06-23T07:53:07.989Z,2128
2018-06-23T07:53:28.359Z,2076
2018-06-23T07:53:48.749Z,2124
2018-06-23T07:54:09.118Z,2196
2018-06-23T07:54:29.540Z,2156
2018-06-23T07:54:49.897Z,2040
2018-06-23T07:55:10.232Z,1876
2018-06-23T07:55:30.472Z,1744
2018-06-23T07:55:50.804Z,1704
2018-06-23T07:56:11.304Z,1716
2018-06-23T07:56:32.511Z,1628
2018-06-23T07:56:53.916Z,1480
2018-06-23T07:57:14.433Z,1356
2018-06-23T07:57:34.811Z,1236
2018-06-23T07:57:55.091Z,1200
2018-06-23T07:58:15.493Z,1248
2018-06-23T07:58:36.515Z,1356
2018-06-23T07:58:57.340Z,1464
2018-06-23T07:59:17.840Z,1584
2018-06-23T07:59:38.180Z,1704
2018-06-23T07:59:59.616Z,1748
2018-06-23T08:00:20.047Z,1720
2018-06-23T08:00:40.557Z,1684
2018-06-23T08:01:00.927Z,1588
2018-06-23T08:01:21.404Z,1460
2018-06-23T08:01:41.849Z,1352
2018-06-23T08:02:02.478Z,1268
2018-06-23T08:02:22.840Z,1188
2018-06-23T08:02:43.184Z,1136
2018-06-23T08:03:06.464Z,1088
2018-06-23T08:03:26.988Z,1060
2018-06-23T08:03:47.326Z,1036
2018-06-23T08:04:07.769Z,1032
2018-06-23T08:04:28.164Z,1068
2018-06-23T08:04:48.419Z,1088
2018-06-23T08:05:08.749Z,1088
2018-06-23T08:05:29.138Z,1040
2018-06-23T08:05:49.543Z,1008
2018-06-23T08:06:09.957Z,996
2018-06-23T08:06:30.339Z,992
2018-06-23T08:06:50.669Z,972
2018-06-23T08:07:10.947Z,972
2018-06-23T08:07:31.437Z,976
2018-06-23T08:07:51.817Z,988
2018-06-23T08:08:12.294Z,1024
2018-06-23T08:08:33.527Z,1056
2018-06-23T08:08:54.006Z,1084
2018-06-23T08:09:14.488Z,1096
2018-06-23T08:09:35.783Z,1136
2018-06-23T08:09:56.029Z,1188
2018-06-23T08:10:16.926Z,1184
2018-06-23T08:10:38.170Z,1168
2018-06-23T08:10:58.571Z,1168
2018-06-23T08:11:18.977Z,1180
2018-06-23T08:11:39.323Z,1204
2018-06-23T08:11:59.677Z,1248
2018-06-23T08:12:20.060Z,1352
2018-06-23T08:12:40.501Z,1424
2018-06-23T08:13:01.409Z,1436
2018-06-23T08:13:22.462Z,1432
2018-06-23T08:13:43.149Z,1412
2018-06-23T08:14:04.486Z,1416
2018-06-23T08:14:25.242Z,1452
2018-06-23T08:14:46.098Z,1532
2018-06-23T08:15:06.659Z,1544
2018-06-23T08:15:27.171Z,1500
2018-06-23T08:15:48.881Z,1440
2018-06-23T08:16:10.114Z,1324
2018-06-23T08:16:30.294Z,1224
2018-06-23T08:16:50.642Z,1188
2018-06-23T08:17:10.652Z,1192
2018-06-23T08:17:30.908Z,1216
2018-06-23T08:17:51.292Z,1300
2018-06-23T08:18:11.664Z,1388
2018-06-23T08:18:31.990Z,1380
2018-06-23T08:18:52.414Z,1376
2018-06-23T08:19:12.709Z,1392
2018-06-23T08:19:33.060Z,1376
2018-06-23T08:19:53.329Z,1348
2018-06-23T08:20:13.837Z,1372
2018-06-23T08:20:34.358Z,1396
2018-06-23T08:20:54.854Z,1372
2018-06-23T08:21:15.590Z,1352
2018-06-23T08:21:35.894Z,1328
2018-06-23T08:21:56.144Z,1336
2018-06-23T08:22:16.390Z,1292
2018-06-23T08:22:37.421Z,1216
2018-06-23T08:22:57.671Z,1144
2018-06-23T08:23:17.909Z,1116
2018-06-23T08:23:38.183Z,1116
2018-06-23T08:23:58.449Z,1156
2018-06-23T08:24:19.439Z,1208
2018-06-23T08:24:39.855Z,1240
2018-06-23T08:25:00.132Z,1260
2018-06-23T08:25:20.993Z,1320
2018-06-23T08:25:41.476Z,1416
2018-06-23T08:26:02.386Z,1548
2018-06-23T08:26:22.735Z,1684
2018-06-23T08:26:43.146Z,1732
2018-06-23T08:27:03.617Z,1680
2018-06-23T08:27:23.812Z,1692
2018-06-23T08:27:44.107Z,1728
2018-06-23T08:28:04.270Z,1760
2018-06-23T08:28:24.638Z,1824
2018-06-23T08:28:44.932Z,1784
2018-06-23T08:29:05.176Z,1724
2018-06-23T08:29:25.378Z,1692
2018-06-23T08:29:45.647Z,1752
2018-06-23T08:30:05.974Z,1704
2018-06-23T08:30:26.864Z,1696
2018-06-23T08:30:47.306Z,1664
2018-06-23T08:31:07.543Z,1644
2018-06-23T08:31:27.821Z,1516
2018-06-23T08:31:48.080Z,1396
2018-06-23T08:32:08.398Z,1436
2018-06-23T08:32:28.755Z,1444
2018-06-23T08:32:50.157Z,1312
2018-06-23T08:33:11.113Z,1252
2018-06-23T08:33:31.423Z,1224
2018-06-23T08:33:51.802Z,1252
2018-06-23T08:34:12.000Z,1324
2018-06-23T08:34:32.404Z,1364
2018-06-23T08:34:52.757Z,1408
2018-06-23T08:35:13.990Z,1476
2018-06-23T08:35:35.196Z,1512
2018-06-23T08:35:59.316Z,1536
2018-06-23T08:36:20.094Z,1612
2018-06-23T08:36:41.645Z,1704
2018-06-23T08:37:01.944Z,1692
2018-06-23T08:37:22.124Z,1624
2018-06-23T08:37:42.542Z,1564
2018-06-23T08:38:37.925Z,1344
2018-06-23T08:38:58.227Z,1372
2018-06-23T08:44:00.564Z,1824
2018-06-23T08:44:20.853Z,1844
2018-06-23T08:45:37.216Z,1856
2018-06-23T08:46:22.537Z,1776
2018-06-23T08:46:42.875Z,1732
2018-06-23T08:47:03.197Z,1732
2018-06-23T08:47:24.280Z,1772
2018-06-23T08:47:44.661Z,1868
2018-06-23T08:48:05.768Z,1904
2018-06-23T08:48:26.161Z,1996
2018-06-23T08:48:46.639Z,1960
2018-06-23T08:49:07.002Z,1964
2018-06-23T08:49:27.308Z,2128
2018-06-23T08:49:48.267Z,2480
2018-06-23T08:50:08.717Z,2444
2018-06-23T08:50:29.219Z,2084
2018-06-23T08:50:49.636Z,2064
2018-06-23T08:51:11.826Z,2068
2018-06-23T08:51:32.152Z,2164
2018-06-23T08:51:52.338Z,2484
2018-06-23T08:52:12.574Z,2740
2018-06-23T08:52:33.040Z,2848
2018-06-23T08:52:53.344Z,2712
2018-06-23T08:53:13.742Z,2468
2018-06-23T08:53:33.987Z,2544
2018-06-23T08:53:54.193Z,2640
2018-06-23T08:54:14.504Z,2348
2018-06-23T08:54:34.990Z,2084
2018-06-23T08:54:55.767Z,1940
2018-06-23T08:55:16.105Z,1832
2018-06-23T08:55:36.597Z,1648
2018-06-23T08:55:57.065Z,1496
2018-06-23T08:56:17.540Z,1448
2018-06-23T08:56:37.853Z,1456
2018-06-23T08:56:58.189Z,1496
2018-06-23T08:57:18.460Z,1396
2018-06-23T08:57:38.800Z,1328
2018-06-23T08:57:59.052Z,1324
2018-06-23T08:58:19.196Z,1296
2018-06-23T08:58:39.518Z,1264
2018-06-23T08:58:59.787Z,1220
2018-06-23T08:59:19.965Z,1188
2018-06-23T08:59:40.151Z,1164
2018-06-23T09:00:00.323Z,1136
2018-06-23T09:06:43.831Z,1456
2018-06-23T09:07:22.259Z,1388
2018-06-23T09:07:42.433Z,1396
2018-06-23T09:08:02.617Z,1424
2018-06-23T09:08:22.808Z,1388
2018-06-23T09:09:11.933Z,1392
2018-06-23T09:09:50.680Z,1396
2018-06-23T09:10:42.331Z,1232
2018-06-23T09:11:34.092Z,1232
2018-06-23T09:14:08.982Z,1328
2018-06-23T09:14:29.210Z,1412
2018-06-23T09:15:06.862Z,1564
2018-06-23T09:15:58.873Z,1588
2018-06-23T09:16:19.112Z,1748
2018-06-23T09:16:39.440Z,1708
2018-06-23T09:16:59.728Z,1768
2018-06-23T09:17:20.093Z,2028
2018-06-23T09:17:40.399Z,1888
2018-06-23T09:18:00.648Z,1808
2018-06-23T09:18:20.905Z,1824
2018-06-23T09:18:41.150Z,1648
2018-06-23T09:19:01.238Z,1688
2018-06-23T09:19:21.636Z,1628
2018-06-23T09:19:41.912Z,1712
2018-06-23T09:20:02.132Z,1872
2018-06-23T09:20:22.436Z,1868
2018-06-23T09:20:42.691Z,1840
2018-06-23T09:21:03.508Z,1972
2018-06-23T09:21:23.692Z,2056
2018-06-23T09:21:44.024Z,2248
2018-06-23T09:22:04.352Z,2724
2018-06-23T09:22:24.556Z,2764
2018-06-23T09:22:44.995Z,2868
2018-06-23T09:23:05.167Z,2704
2018-06-23T09:23:25.393Z,2408
2018-06-23T09:23:45.614Z,2152
2018-06-23T09:24:05.882Z,2092
2018-06-23T09:25:01.631Z,2312
2018-06-23T09:25:21.782Z,2432
2018-06-23T09:25:42.116Z,2436
2018-06-23T09:26:03.365Z,2472
2018-06-23T09:26:23.687Z,2204
2018-06-23T09:26:44.209Z,2004
2018-06-23T09:27:04.448Z,1880
2018-06-23T09:27:24.696Z,1924
2018-06-23T09:27:45.033Z,1904
2018-06-23T09:28:05.383Z,1932
2018-06-23T09:28:25.650Z,1960
2018-06-23T09:28:45.916Z,1908
2018-06-23T09:29:06.431Z,2020
2018-06-23T09:29:27.230Z,2116
2018-06-23T09:29:47.628Z,2128
2018-06-23T09:30:07.907Z,2024
2018-06-23T09:30:28.094Z,1968
2018-06-23T09:30:48.296Z,2120
2018-06-23T09:31:08.600Z,2416
2018-06-23T09:31:28.796Z,2508
2018-06-23T09:31:48.975Z,2648
2018-06-23T09:32:09.212Z,2988
2018-06-23T09:32:29.375Z,3080
2018-06-23T09:32:49.824Z,3132
2018-06-23T09:33:10.246Z,2976
2018-06-23T09:33:30.547Z,2940
2018-06-23T09:33:50.696Z,3064
2018-06-23T09:34:11.150Z,3136
2018-06-23T09:34:32.371Z,3136
2018-06-23T09:34:52.699Z,3248
2018-06-23T09:35:13.988Z,3184
2018-06-23T09:35:34.249Z,3216
2018-06-23T09:35:54.602Z,3268
2018-06-23T09:36:15.365Z,3444
2018-06-23T09:36:35.858Z,3540
2018-06-23T09:36:56.366Z,3624
2018-06-23T09:37:16.929Z,3752
2018-06-23T09:37:37.374Z,3952
2018-06-23T09:37:57.850Z,4020
2018-06-23T09:38:18.275Z,4052
2018-06-23T09:38:39.477Z,3548
2018-06-23T09:39:01.199Z,3460
2018-06-23T09:39:22.704Z,3720
2018-06-23T09:39:42.866Z,3236
2018-06-23T09:40:03.218Z,3620
2018-06-23T09:40:23.651Z,3700
2018-06-23T09:40:44.288Z,3772
2018-06-23T09:41:04.563Z,4052
2018-06-23T09:41:25.988Z,4100
2018-06-23T09:41:46.284Z,4120
2018-06-23T09:42:06.862Z,4132
2018-06-23T09:42:27.592Z,4116
2018-06-23T09:42:47.984Z,4324
2018-06-23T09:43:08.248Z,4096
2018-06-23T09:43:28.597Z,3944
2018-06-23T09:43:48.970Z,3348
2018-06-23T09:44:09.450Z,3440
2018-06-23T09:44:29.960Z,3376
2018-06-23T09:44:50.407Z,3424
2018-06-23T09:45:11.043Z,3552
2018-06-23T09:45:31.517Z,3436
2018-06-23T09:45:52.484Z,3044
2018-06-23T09:46:13.019Z,2688
2018-06-23T09:46:33.415Z,2824
2018-06-23T09:46:53.740Z,2728
2018-06-23T09:47:15.433Z,2768
2018-06-23T09:47:35.717Z,3072
2018-06-23T09:47:55.954Z,2960
2018-06-23T09:48:16.422Z,2764
2018-06-23T09:48:36.785Z,2980
2018-06-23T09:48:58.135Z,2896
2018-06-23T09:49:18.631Z,2856
2018-06-23T09:49:38.961Z,2708
2018-06-23T09:49:59.765Z,2856
2018-06-23T09:50:20.028Z,3104
2018-06-23T09:50:40.296Z,2988
2018-06-23T09:51:00.822Z,3080
2018-06-23T09:51:21.220Z,3380
2018-06-23T09:51:42.587Z,3348
2018-06-23T09:52:03.564Z,3144
2018-06-23T09:52:24.144Z,3284
2018-06-23T09:52:45.459Z,3584
2018-06-23T09:53:05.950Z,3600
2018-06-23T09:53:26.314Z,3416
2018-06-23T09:53:46.854Z,3144
2018-06-23T09:54:07.348Z,3144
2018-06-23T09:54:27.701Z,3432
2018-06-23T09:54:49.105Z,3956
2018-06-23T09:55:09.637Z,3952
2018-06-23T09:55:30.157Z,3496
2018-06-23T09:55:50.568Z,3704
2018-06-23T09:56:11.120Z,3744
2018-06-23T09:56:31.538Z,3528
2018-06-23T09:56:51.963Z,3776
2018-06-23T09:57:12.369Z,4164
2018-06-23T09:57:32.824Z,3996
2018-06-23T09:57:53.349Z,3696
2018-06-23T09:58:13.693Z,4600
2018-06-23T09:58:34.132Z,4628
2018-06-23T09:58:54.518Z,4532
2018-06-23T09:59:14.805Z,4492
2018-06-23T09:59:35.858Z,4248
2018-06-23T09:59:56.320Z,4312
2018-06-23T10:00:16.719Z,3624
2018-06-23T10:00:37.271Z,3752
2018-06-23T10:00:57.637Z,3760
2018-06-23T10:01:18.231Z,4164
2018-06-23T10:01:38.714Z,4384
2018-06-23T10:01:59.189Z,4412
2018-06-23T10:02:19.640Z,4468
2018-06-23T10:02:40.197Z,4124
2018-06-23T10:03:00.851Z,4216
2018-06-23T10:03:21.490Z,4508
2018-06-23T10:03:43.329Z,4412
2018-06-23T10:04:04.040Z,4008
2018-06-23T10:04:24.506Z,3772
2018-06-23T10:04:45.215Z,3664
2018-06-23T10:05:06.466Z,3660
2018-06-23T10:05:27.092Z,4028
2018-06-23T10:05:48.524Z,4036
2018-06-23T10:06:08.891Z,3680
2018-06-23T10:06:30.024Z,3508
2018-06-23T10:06:50.640Z,3344
2018-06-23T10:07:11.142Z,3160
2018-06-23T10:07:31.594Z,2732
2018-06-23T10:07:52.075Z,2576
2018-06-23T10:08:12.459Z,2564
2018-06-23T10:08:32.925Z,2416
2018-06-23T10:08:53.890Z,2040
2018-06-23T10:09:14.316Z,2012
2018-06-23T10:09:34.929Z,2168
2018-06-23T10:09:55.403Z,2156
2018-06-23T10:10:16.820Z,2096
2018-06-23T10:10:37.436Z,2024
2018-06-23T10:10:58.121Z,2136
2018-06-23T10:11:19.486Z,1936
2018-06-23T10:11:40.129Z,1952
2018-06-23T10:12:00.649Z,1988
2018-06-23T10:12:21.127Z,2128
2018-06-23T10:12:41.437Z,2208
2018-06-23T10:13:01.749Z,2276
2018-06-23T10:13:22.039Z,2228
2018-06-23T10:13:42.349Z,2044
2018-06-23T10:14:02.757Z,1692
2018-06-23T10:14:22.984Z,1488
2018-06-23T10:14:43.254Z,1476
2018-06-23T10:15:03.502Z,1504
2018-06-23T10:15:23.755Z,1428
2018-06-23T10:15:44.052Z,1328
2018-06-23T10:16:04.378Z,1356
2018-06-23T10:16:24.938Z,1312
2018-06-23T10:16:45.179Z,1516
2018-06-23T10:17:05.344Z,1524
2018-06-23T10:17:25.592Z,1404
2018-06-23T10:17:45.706Z,1376
2018-06-23T10:18:05.996Z,1360
2018-06-23T10:18:26.295Z,1404
2018-06-23T10:18:46.607Z,1544
2018-06-23T10:19:06.975Z,1680
2018-06-23T10:19:27.237Z,1664
2018-06-23T10:19:47.507Z,1748
2018-06-23T10:20:07.781Z,1832
2018-06-23T10:20:28.410Z,1832
2018-06-23T10:20:48.968Z,1956
2018-06-23T10:21:09.257Z,1864
2018-06-23T10:21:29.651Z,2096
2018-06-23T10:21:49.821Z,2256
2018-06-23T10:22:11.991Z,2308
2018-06-23T10:22:32.289Z,2388
2018-06-23T10:22:52.555Z,2552
2018-06-23T10:23:12.725Z,2604
2018-06-23T10:23:33.902Z,2424
2018-06-23T10:23:54.176Z,2584
2018-06-23T10:24:14.518Z,2616
2018-06-23T10:24:35.380Z,2504
2018-06-23T10:24:55.740Z,2616
2018-06-23T10:25:16.211Z,2596
2018-06-23T10:25:36.633Z,2516
2018-06-23T10:25:56.919Z,2232
2018-06-23T10:26:17.142Z,2192
2018-06-23T10:26:37.432Z,2136
2018-06-23T10:26:57.803Z,2076
2018-06-23T10:27:18.098Z,1988
2018-06-23T10:27:38.299Z,1976
2018-06-23T10:27:58.536Z,1996
2018-06-23T10:28:18.751Z,1984
2018-06-23T10:28:38.941Z,1880
2018-06-23T10:28:59.112Z,2020
2018-06-23T10:29:19.346Z,2040
2018-06-23T10:29:39.555Z,1944
2018-06-23T10:29:59.819Z,1908
2018-06-23T10:30:19.995Z,1788
2018-06-23T10:30:40.277Z,1888
2018-06-23T10:31:00.439Z,1900
2018-06-23T10:31:20.644Z,1940
2018-06-23T10:31:40.837Z,2036
2018-06-23T10:32:01.001Z,1992
2018-06-23T10:32:21.216Z,1916
2018-06-23T10:32:41.313Z,1788
2018-06-23T10:33:01.986Z,1712
2018-06-23T10:33:22.551Z,1560
2018-06-23T10:33:42.921Z,1592
2018-06-23T10:34:03.514Z,1652
2018-06-23T10:34:24.393Z,1648
2018-06-23T10:34:44.832Z,1576
2018-06-23T10:35:05.115Z,1456
2018-06-23T10:35:25.289Z,1392
2018-06-23T10:35:45.473Z,1468
2018-06-23T10:36:05.694Z,1576
2018-06-23T10:36:25.824Z,1696
2018-06-23T10:36:46.998Z,1700
2018-06-23T10:37:07.255Z,1552
2018-06-23T10:37:27.402Z,1668
2018-06-23T10:37:47.548Z,1764
2018-06-23T10:38:07.709Z,1748
2018-06-23T10:38:27.893Z,1948
2018-06-23T10:38:48.365Z,2104
2018-06-23T10:39:08.366Z,2008
2018-06-23T10:39:28.648Z,2036
2018-06-23T10:39:49.112Z,2048
2018-06-23T10:40:09.639Z,2008
2018-06-23T10:40:30.047Z,2200
2018-06-23T10:40:50.321Z,2800
2018-06-23T10:41:10.549Z,2860
2018-06-23T10:41:30.746Z,2776
2018-06-23T10:41:51.002Z,2892
2018-06-23T10:42:11.296Z,2752
2018-06-23T10:42:31.546Z,2476
2018-06-23T10:42:51.922Z,2344
2018-06-23T10:43:12.131Z,2388
2018-06-23T10:43:32.344Z,2424
2018-06-23T10:43:53.315Z,2504
2018-06-23T10:44:13.624Z,2460
2018-06-23T10:44:34.004Z,2536
2018-06-23T10:44:54.266Z,2628
2018-06-23T10:45:14.440Z,2960
2018-06-23T10:45:34.741Z,3164
2018-06-23T10:45:55.124Z,3304
2018-06-23T10:46:15.549Z,3292
2018-06-23T10:46:36.941Z,3328
2018-06-23T10:46:57.497Z,3152
2018-06-23T10:47:18.370Z,2840
2018-06-23T10:47:40.440Z,2756
2018-06-23T10:48:00.844Z,2872
2018-06-23T10:48:21.543Z,2964
2018-06-23T10:48:42.150Z,3016
2018-06-23T10:49:02.554Z,3152
2018-06-23T10:49:23.047Z,3340
2018-06-23T10:49:43.604Z,3476
2018-06-23T10:50:04.128Z,3304
2018-06-23T10:50:24.820Z,3400
2018-06-23T10:50:45.985Z,3732
2018-06-23T10:51:07.485Z,3696
2018-06-23T10:51:28.174Z,3828
2018-06-23T10:51:48.823Z,4164
2018-06-23T10:52:09.990Z,4392
2018-06-23T10:52:30.169Z,4092
2018-06-23T10:52:50.392Z,4052
2018-06-23T10:53:11.510Z,4260
2018-06-23T10:53:31.735Z,4364
2018-06-23T10:53:52.155Z,4384
2018-06-23T10:54:12.514Z,4320
2018-06-23T10:54:32.776Z,4164
2018-06-23T10:54:53.053Z,4052
2018-06-23T10:55:13.501Z,3848
2018-06-23T10:55:33.908Z,3596
2018-06-23T10:55:55.029Z,3332
2018-06-23T10:56:15.901Z,3368
2018-06-23T10:56:36.350Z,3348
2018-06-23T10:56:56.753Z,3148
2018-06-23T10:57:17.144Z,2996
2018-06-23T10:57:37.579Z,3236
2018-06-23T10:57:58.047Z,3168
2018-06-23T10:58:18.274Z,3000
2018-06-23T10:58:38.441Z,2924
2018-06-23T10:58:58.705Z,2968
2018-06-23T10:59:20.026Z,2828
2018-06-23T10:59:40.981Z,2656
2018-06-23T11:00:01.648Z,2436
2018-06-23T11:00:22.197Z,2508
2018-06-23T11:00:45.008Z,2452
2018-06-23T11:01:05.729Z,2344
2018-06-23T11:01:26.331Z,2204
2018-06-23T11:01:47.492Z,2416
2018-06-23T11:02:08.078Z,2524
2018-06-23T11:02:28.732Z,2468
2018-06-23T11:02:49.126Z,2324
2018-06-23T11:03:09.497Z,2164